createdAt,value
2022-09-21T00:01:12.381Z,100.00
2022-09-21T00:03:41.556Z,100.00
2022-09-21T00:06:10.984Z,100.00
2022-09-21T00:08:38.032Z,100.00
2022-09-21T00:11:05.818Z,100.00
2022-09-21T00:13:33.718Z,100.00
2022-09-21T00:16:01.088Z,100.00
2022-09-21T00:18:27.918Z,100.00
2022-09-21T00:20:54.598Z,100.00
2022-09-21T00:23:21.248Z,100.00
2022-09-21T00:25:47.926Z,100.00
2022-09-21T00:28:14.543Z,100.00
2022-09-21T00:30:41.847Z,100.00
2022-09-21T00:33:08.293Z,100.00
2022-09-21T00:35:34.828Z,100.00
2022-09-21T00:38:03.404Z,100.00
2022-09-21T00:40:30.855Z,100.00
2022-09-21T00:43:14.974Z,100.00
2022-09-21T00:45:43.211Z,100.00
2022-09-21T00:48:10.218Z,100.00
2022-09-21T00:50:42.852Z,100.00
2022-09-21T00:53:09.629Z,100.00
2022-09-21T00:55:42.322Z,100.00
2022-09-21T00:58:15.838Z,100.00
2022-09-21T01:00:43.090Z,100.00
2022-09-21T01:03:12.034Z,100.00
2022-09-21T01:05:38.809Z,100.00
2022-09-21T01:08:07.928Z,100.00
2022-09-21T01:10:57.041Z,100.00
2022-09-21T01:13:52.570Z,100.00
2022-09-21T01:16:35.270Z,100.00
2022-09-21T01:19:50.108Z,100.00
2022-09-21T01:22:38.524Z,100.00
2022-09-21T01:25:35.730Z,100.00
2022-09-21T01:28:37.067Z,100.00
2022-09-21T01:31:07.342Z,100.00
2022-09-21T01:33:40.149Z,100.00
2022-09-21T01:36:12.811Z,100.00
2022-09-21T01:38:45.444Z,100.00
2022-09-21T01:41:16.518Z,100.00
2022-09-21T01:43:48.706Z,100.00
2022-09-21T01:46:21.500Z,100.00
2022-09-21T01:48:52.286Z,100.00
2022-09-21T01:51:21.941Z,100.00
2022-09-21T01:54:02.942Z,100.00
2022-09-21T01:56:59.641Z,100.00
2022-09-21T01:59:35.386Z,100.00
2022-09-21T02:02:11.766Z,100.00
2022-09-21T02:04:39.867Z,100.00
2022-09-21T02:07:07.671Z,100.00
2022-09-21T02:09:36.764Z,100.00
2022-09-21T02:12:05.061Z,100.00
2022-09-21T02:14:33.722Z,100.00
2022-09-21T02:17:23.893Z,100.00
2022-09-21T02:20:03.224Z,100.00
2022-09-21T02:22:57.525Z,100.00
2022-09-21T02:25:41.622Z,100.00
2022-09-21T02:28:29.729Z,100.00
2022-09-21T02:31:14.641Z,100.00
2022-09-21T02:33:59.657Z,100.00
2022-09-21T02:36:35.759Z,100.00
2022-09-21T02:39:15.995Z,100.00
2022-09-21T02:41:54.890Z,100.00
2022-09-21T02:44:33.825Z,100.00
2022-09-21T02:47:14.984Z,100.00
2022-09-21T02:49:47.173Z,100.00
2022-09-21T02:52:16.572Z,100.00
2022-09-21T02:54:47.854Z,100.00
2022-09-21T02:57:17.132Z,100.00
2022-09-21T02:59:44.569Z,100.00
2022-09-21T03:02:12.709Z,100.00
2022-09-21T03:04:41.421Z,100.00
2022-09-21T03:07:09.251Z,100.00
2022-09-21T03:09:36.486Z,100.00
2022-09-21T03:12:03.176Z,100.00
2022-09-21T03:14:29.876Z,100.00
2022-09-21T03:16:56.410Z,100.00
2022-09-21T03:19:22.998Z,100.00
2022-09-21T03:21:49.554Z,100.00
2022-09-21T03:24:36.094Z,100.00
2022-09-21T03:27:02.691Z,100.00
2022-09-21T03:29:29.284Z,100.00
2022-09-21T03:31:56.152Z,100.00
2022-09-21T03:34:23.093Z,100.00
2022-09-21T03:36:49.747Z,100.00
2022-09-21T03:39:16.313Z,100.00
2022-09-21T03:41:42.768Z,100.00
2022-09-21T03:44:09.358Z,100.00
2022-09-21T03:46:35.850Z,100.00
2022-09-21T03:49:03.200Z,100.00
2022-09-21T03:51:31.673Z,100.00
2022-09-21T03:53:58.335Z,100.00
2022-09-21T03:56:24.938Z,100.00
2022-09-21T03:58:51.562Z,100.00
2022-09-21T04:01:18.211Z,100.00
2022-09-21T04:03:44.804Z,100.00
2022-09-21T04:06:12.612Z,100.00
2022-09-21T04:08:39.664Z,100.00
2022-09-21T04:11:22.644Z,100.00
2022-09-21T04:13:57.072Z,100.00
2022-09-21T04:16:27.832Z,100.00
2022-09-21T04:18:54.541Z,100.00
2022-09-21T04:21:22.447Z,100.00
2022-09-21T04:23:50.043Z,100.00
2022-09-21T04:26:32.855Z,100.00
2022-09-21T04:28:59.926Z,100.00
2022-09-21T04:31:28.310Z,100.00
2022-09-21T04:33:57.293Z,100.00
2022-09-21T04:36:25.471Z,100.00
2022-09-21T04:38:52.129Z,100.00
2022-09-21T04:41:19.078Z,100.00
2022-09-21T04:43:47.062Z,100.00
2022-09-21T04:46:16.181Z,100.00
2022-09-21T04:48:43.493Z,100.00
2022-09-21T04:51:10.961Z,100.00
2022-09-21T04:53:39.837Z,100.00
2022-09-21T04:56:07.889Z,100.00
2022-09-21T04:58:34.961Z,100.00
2022-09-21T05:01:02.136Z,100.00
2022-09-21T05:03:28.796Z,100.00
2022-09-21T05:05:56.962Z,100.00
2022-09-21T05:08:43.952Z,100.00
2022-09-21T05:11:14.189Z,100.00
2022-09-21T05:13:40.880Z,100.00
2022-09-21T05:16:07.678Z,100.00
2022-09-21T05:18:34.586Z,100.00
2022-09-21T05:21:02.466Z,100.00
2022-09-21T05:23:31.211Z,100.00
2022-09-21T05:25:59.190Z,100.00
2022-09-21T05:28:26.968Z,100.00
2022-09-21T05:31:18.852Z,100.00
2022-09-21T05:33:54.133Z,100.00
2022-09-21T05:36:33.576Z,100.00
2022-09-21T05:39:00.335Z,100.00
2022-09-21T05:41:27.065Z,100.00
2022-09-21T05:43:53.986Z,100.00
2022-09-21T05:46:35.878Z,100.00
2022-09-21T05:49:20.288Z,100.00
2022-09-21T05:52:01.618Z,100.00
2022-09-21T05:54:38.133Z,100.00
2022-09-21T05:57:13.862Z,100.00
2022-09-21T05:59:54.202Z,100.00
2022-09-21T06:03:05.006Z,100.00
2022-09-21T06:05:31.665Z,100.00
2022-09-21T06:07:58.332Z,100.00
2022-09-21T06:10:25.546Z,100.00
2022-09-21T06:12:52.045Z,100.00
2022-09-21T06:15:18.677Z,100.00
2022-09-21T06:17:45.301Z,100.00
2022-09-21T06:20:11.899Z,100.00
2022-09-21T06:22:38.475Z,100.00
2022-09-21T06:25:05.442Z,100.00
2022-09-21T06:27:31.928Z,100.00
2022-09-21T06:29:58.704Z,100.00
2022-09-21T06:32:25.254Z,100.00
2022-09-21T06:34:51.974Z,100.00
2022-09-21T06:37:18.601Z,100.00
2022-09-21T06:39:45.201Z,100.00
2022-09-21T06:42:11.934Z,100.00
2022-09-21T06:44:38.463Z,100.00
2022-09-21T06:47:05.141Z,100.00
2022-09-21T06:49:32.147Z,100.00
2022-09-21T06:51:58.737Z,100.00
2022-09-21T06:54:25.911Z,100.00
2022-09-21T06:56:54.870Z,100.00
2022-09-21T06:59:23.524Z,100.00
2022-09-21T07:01:50.228Z,100.00
2022-09-21T07:04:17.010Z,100.00
2022-09-21T07:06:43.561Z,100.00
2022-09-21T07:11:58.351Z,100.00
2022-09-21T07:14:25.072Z,100.00
2022-09-21T07:16:53.140Z,100.00
2022-09-21T07:19:19.770Z,100.00
2022-09-21T07:21:46.442Z,100.00
2022-09-21T07:24:13.096Z,100.00
2022-09-21T07:26:40.657Z,100.00
2022-09-21T07:29:07.338Z,100.00
2022-09-21T07:31:34.045Z,100.00
2022-09-21T07:34:00.704Z,99.08
2022-09-21T07:36:27.429Z,100.00
2022-09-21T07:38:54.293Z,99.44
2022-09-21T07:41:21.504Z,95.77
2022-09-21T07:43:48.063Z,95.19
2022-09-21T07:46:15.638Z,94.25
2022-09-21T07:48:42.597Z,94.77
2022-09-21T07:51:14.080Z,93.20
2022-09-21T07:53:44.234Z,92.49
2022-09-21T07:56:16.376Z,91.01
2022-09-21T07:59:02.106Z,93.19
2022-09-21T08:01:29.567Z,91.34
2022-09-21T08:03:57.926Z,94.26
2022-09-21T08:06:27.226Z,93.36
2022-09-21T08:08:57.702Z,91.75
2022-09-21T08:11:26.155Z,88.60
2022-09-21T08:13:54.659Z,89.96
2022-09-21T08:16:21.445Z,88.25
2022-09-21T08:18:48.061Z,86.05
2022-09-21T08:21:15.329Z,84.70
2022-09-21T08:23:42.897Z,81.32
2022-09-21T08:26:18.965Z,84.17
2022-09-21T08:28:49.992Z,84.77
2022-09-21T08:31:19.588Z,81.22
2022-09-21T08:33:50.123Z,81.18
2022-09-21T08:36:18.524Z,79.34
2022-09-21T08:38:45.999Z,77.16
2022-09-21T08:41:36.167Z,78.76
2022-09-21T08:44:14.263Z,78.84
2022-09-21T08:46:43.494Z,77.96
2022-09-21T08:49:18.971Z,76.61
2022-09-21T08:51:54.526Z,76.59
2022-09-21T08:54:28.768Z,76.59
2022-09-21T08:57:11.763Z,74.07
2022-09-21T08:59:41.956Z,73.47
2022-09-21T09:02:33.822Z,72.56
2022-09-21T09:05:04.434Z,72.29
2022-09-21T09:07:52.613Z,72.34
2022-09-21T09:10:28.171Z,73.21
2022-09-21T09:13:07.013Z,71.68
2022-09-21T09:15:58.017Z,69.38
2022-09-21T09:18:45.871Z,69.35
2022-09-21T09:21:35.654Z,67.86
2022-09-21T09:24:21.854Z,69.66
2022-09-21T09:26:56.972Z,69.15
2022-09-21T09:29:35.201Z,69.54
2022-09-21T09:32:02.250Z,66.51
2022-09-21T09:34:34.353Z,66.01
2022-09-21T09:37:16.461Z,67.02
2022-09-21T09:39:54.274Z,66.21
2022-09-21T09:42:39.558Z,66.39
2022-09-21T09:45:31.839Z,64.31
2022-09-21T09:48:12.240Z,64.32
2022-09-21T09:50:41.127Z,62.90
2022-09-21T09:53:14.426Z,60.31
2022-09-21T09:55:44.249Z,60.95
2022-09-21T09:58:37.207Z,61.43
2022-09-21T10:01:04.506Z,61.16
2022-09-21T10:03:31.109Z,60.53
2022-09-21T10:05:58.049Z,60.77
2022-09-21T10:08:30.607Z,58.49
2022-09-21T10:10:57.846Z,57.87
2022-09-21T10:13:33.336Z,60.64
2022-09-21T10:16:03.023Z,60.39
2022-09-21T10:18:46.050Z,59.31
2022-09-21T10:21:23.653Z,59.03
2022-09-21T10:23:58.404Z,61.26
2022-09-21T10:26:32.101Z,61.17
2022-09-21T10:29:17.649Z,63.07
2022-09-21T10:32:01.162Z,61.87
2022-09-21T10:34:35.809Z,60.77
2022-09-21T10:37:23.803Z,62.47
2022-09-21T10:39:50.369Z,60.58
2022-09-21T10:42:19.665Z,58.20
2022-09-21T10:44:50.586Z,56.18
2022-09-21T10:47:35.715Z,55.56
2022-09-21T10:50:07.251Z,55.33
2022-09-21T10:52:41.644Z,55.89
2022-09-21T10:55:17.141Z,56.75
2022-09-21T10:57:45.392Z,55.75
2022-09-21T11:00:21.450Z,55.91
2022-09-21T11:02:48.711Z,54.59
2022-09-21T11:05:27.713Z,53.34
2022-09-21T11:08:03.085Z,53.78
2022-09-21T11:10:43.914Z,55.30
2022-09-21T11:13:28.390Z,54.94
2022-09-21T11:16:01.655Z,54.00
2022-09-21T11:18:46.877Z,53.59
2022-09-21T11:21:32.250Z,55.41
2022-09-21T11:24:28.824Z,56.50
2022-09-21T11:27:11.216Z,58.50
2022-09-21T11:30:03.930Z,60.06
2022-09-21T11:33:07.547Z,57.90
2022-09-21T11:35:45.969Z,55.16
2022-09-21T11:38:21.571Z,53.75
2022-09-21T11:41:09.222Z,56.28
2022-09-21T11:43:59.962Z,56.01
2022-09-21T11:46:52.298Z,56.98
2022-09-21T11:49:21.645Z,59.20
2022-09-21T11:52:31.393Z,57.93
2022-09-21T11:55:13.838Z,57.86
2022-09-21T11:57:52.797Z,60.71
2022-09-21T12:00:23.004Z,61.28
2022-09-21T12:03:45.604Z,60.40
2022-09-21T12:06:35.507Z,59.29
2022-09-21T12:09:07.775Z,59.26
2022-09-21T12:11:48.745Z,58.57
2022-09-21T12:14:50.360Z,57.09
2022-09-21T12:17:34.670Z,57.20
2022-09-21T12:20:23.841Z,57.86
2022-09-21T12:22:57.744Z,57.97
2022-09-21T12:25:31.869Z,56.44
2022-09-21T12:28:07.248Z,56.67
2022-09-21T12:30:34.788Z,56.55
2022-09-21T12:33:20.788Z,57.92
2022-09-21T12:35:54.144Z,56.16
2022-09-21T12:38:30.294Z,56.21
2022-09-21T12:41:16.103Z,58.05
2022-09-21T12:43:56.782Z,56.17
2022-09-21T12:46:30.609Z,55.82
2022-09-21T12:49:00.599Z,55.37
2022-09-21T12:51:44.248Z,53.62
2022-09-21T12:54:25.954Z,53.65
2022-09-21T12:57:23.497Z,53.67
2022-09-21T13:00:06.582Z,53.96
2022-09-21T13:03:17.820Z,54.16
2022-09-21T13:06:09.106Z,55.00
2022-09-21T13:08:41.095Z,52.81
2022-09-21T13:11:09.026Z,54.41
2022-09-21T13:13:44.077Z,56.40
2022-09-21T13:16:26.909Z,55.68
2022-09-21T13:19:19.574Z,55.42
2022-09-21T13:21:46.360Z,55.93
2022-09-21T13:24:30.713Z,55.44
2022-09-21T13:27:07.406Z,55.70
2022-09-21T13:29:36.701Z,56.65
2022-09-21T13:32:20.522Z,56.41
2022-09-21T13:34:48.368Z,57.33
2022-09-21T13:37:27.762Z,57.27
2022-09-21T13:40:04.103Z,57.97
2022-09-21T13:42:34.426Z,56.58
2022-09-21T13:45:18.489Z,54.78
2022-09-21T13:47:52.875Z,56.13
2022-09-21T13:50:34.381Z,56.00
2022-09-21T13:53:23.692Z,55.89
2022-09-21T13:55:54.194Z,54.49
2022-09-21T13:58:45.073Z,54.50
2022-09-21T14:01:47.623Z,54.25
2022-09-21T14:04:30.073Z,55.70
2022-09-21T14:06:58.033Z,55.20
2022-09-21T14:09:31.780Z,54.23
2022-09-21T14:12:03.368Z,54.16
2022-09-21T14:14:37.384Z,55.30
2022-09-21T14:17:49.172Z,54.19
2022-09-21T14:20:37.213Z,54.08
2022-09-21T14:23:14.762Z,56.82
2022-09-21T14:25:56.780Z,55.29
2022-09-21T14:28:43.651Z,55.83
2022-09-21T14:31:21.818Z,53.61
2022-09-21T14:33:55.289Z,53.33
2022-09-21T14:36:47.482Z,54.01
2022-09-21T14:39:22.151Z,54.51
2022-09-21T14:41:51.611Z,55.08
2022-09-21T14:44:21.584Z,56.59
2022-09-21T14:47:05.441Z,56.46
2022-09-21T14:49:50.065Z,57.08
2022-09-21T14:52:54.481Z,57.53
2022-09-21T14:55:42.834Z,57.55
2022-09-21T14:58:29.733Z,59.36
2022-09-21T15:00:58.322Z,59.66
2022-09-21T15:03:41.973Z,59.33
2022-09-21T15:06:48.952Z,59.18
2022-09-21T15:09:49.309Z,57.25
2022-09-21T15:12:20.104Z,57.47
2022-09-21T15:14:57.673Z,58.49
2022-09-21T15:17:27.222Z,59.47
2022-09-21T15:20:15.216Z,59.40
2022-09-21T15:22:44.892Z,59.21
2022-09-21T15:25:15.559Z,59.46
2022-09-21T15:27:46.029Z,58.26
2022-09-21T15:30:25.319Z,59.34
2022-09-21T15:32:55.797Z,59.23
2022-09-21T15:35:24.736Z,60.19
2022-09-21T15:37:52.075Z,59.85
2022-09-21T15:40:18.688Z,59.21
2022-09-21T15:43:01.774Z,59.14
2022-09-21T15:45:34.041Z,57.93
2022-09-21T15:48:01.131Z,57.21
2022-09-21T15:50:29.610Z,58.16
2022-09-21T15:53:10.438Z,57.67
2022-09-21T15:55:37.015Z,57.17
2022-09-21T15:58:18.878Z,58.82
2022-09-21T16:00:55.035Z,60.33
2022-09-21T16:03:24.576Z,61.91
2022-09-21T16:05:56.592Z,60.21
2022-09-21T16:08:33.718Z,61.94
2022-09-21T16:11:14.259Z,61.30
2022-09-21T16:14:00.762Z,61.19
2022-09-21T16:16:27.492Z,62.52
2022-09-21T16:18:56.494Z,63.49
2022-09-21T16:21:32.790Z,63.06
2022-09-21T16:24:19.037Z,63.25
2022-09-21T16:27:01.023Z,63.53
2022-09-21T16:29:38.709Z,64.13
2022-09-21T16:32:27.525Z,63.19
2022-09-21T16:35:22.089Z,63.29
2022-09-21T16:37:49.169Z,64.15
2022-09-21T16:40:15.801Z,63.75
2022-09-21T16:42:46.192Z,63.46
2022-09-21T16:45:23.770Z,64.19
2022-09-21T16:47:51.102Z,64.47
2022-09-21T16:50:19.054Z,65.48
2022-09-21T16:52:48.787Z,66.78
2022-09-21T16:55:18.254Z,67.64
2022-09-21T16:57:46.156Z,69.01
2022-09-21T17:00:14.335Z,70.97
2022-09-21T17:02:42.790Z,71.91
2022-09-21T17:05:09.840Z,72.23
2022-09-21T17:07:36.538Z,76.59
2022-09-21T17:10:12.898Z,80.15
2022-09-21T17:12:39.535Z,81.71
2022-09-21T17:15:08.288Z,82.58
2022-09-21T17:17:34.930Z,84.03
2022-09-21T17:20:07.168Z,83.43
2022-09-21T17:22:33.751Z,82.02
2022-09-21T17:25:00.353Z,81.34
2022-09-21T17:27:29.267Z,82.71
2022-09-21T17:29:56.632Z,86.55
2022-09-21T17:32:24.637Z,89.13
2022-09-21T17:35:01.851Z,87.51
2022-09-21T17:37:29.444Z,87.48
2022-09-21T17:39:56.011Z,89.04
2022-09-21T17:42:24.824Z,89.26
2022-09-21T17:45:06.819Z,89.88
2022-09-21T17:47:34.148Z,88.21
2022-09-21T17:50:12.870Z,89.58
2022-09-21T17:52:59.635Z,91.83
2022-09-21T17:55:27.009Z,93.55
2022-09-21T17:58:29.009Z,94.98
2022-09-21T18:01:10.241Z,96.41
2022-09-21T18:03:42.020Z,97.13
2022-09-21T18:06:10.009Z,97.15
2022-09-21T18:08:38.375Z,96.73
2022-09-21T18:11:36.462Z,96.80
2022-09-21T18:14:25.275Z,96.62
2022-09-21T18:17:16.653Z,97.66
2022-09-21T18:20:06.560Z,97.18
2022-09-21T18:22:57.453Z,97.76
2022-09-21T18:25:36.263Z,97.61
2022-09-21T18:28:12.853Z,97.67
2022-09-21T18:30:46.409Z,98.85
2022-09-21T18:33:25.142Z,99.54
2022-09-21T18:36:08.403Z,99.76
2022-09-21T18:38:45.390Z,99.85
2022-09-21T18:41:18.076Z,99.87
2022-09-21T18:43:50.639Z,100.00
2022-09-21T18:46:23.673Z,100.00
2022-09-21T18:49:10.025Z,100.00
2022-09-21T18:52:16.132Z,100.00
2022-09-21T18:54:43.383Z,100.00
2022-09-21T18:57:12.939Z,100.00
2022-09-21T18:59:40.522Z,100.00
2022-09-21T19:02:12.583Z,100.00
2022-09-21T19:04:40.130Z,100.00
2022-09-21T19:07:20.079Z,100.00
2022-09-21T19:10:04.116Z,100.00
2022-09-21T19:12:42.748Z,100.00
2022-09-21T19:15:59.138Z,100.00
2022-09-21T19:18:59.023Z,100.00
2022-09-21T19:21:54.410Z,100.00
2022-09-21T19:24:58.450Z,100.00
2022-09-21T19:27:34.474Z,100.00
2022-09-21T19:30:16.178Z,100.00
2022-09-21T19:32:45.863Z,100.00
2022-09-21T19:35:17.861Z,100.00
2022-09-21T19:37:45.068Z,100.00
2022-09-21T19:40:11.989Z,100.00
2022-09-21T19:42:59.606Z,100.00
2022-09-21T19:45:50.569Z,100.00
2022-09-21T19:48:18.925Z,100.00
2022-09-21T19:50:53.325Z,100.00
2022-09-21T19:53:39.624Z,100.00
2022-09-21T19:56:30.303Z,100.00
2022-09-21T19:59:15.949Z,100.00
2022-09-21T20:01:52.561Z,100.00
2022-09-21T20:04:46.166Z,100.00
2022-09-21T20:07:29.444Z,100.00
2022-09-21T20:10:08.605Z,100.00
2022-09-21T20:12:46.688Z,100.00
2022-09-21T20:15:22.025Z,100.00
2022-09-21T20:17:53.614Z,100.00
2022-09-21T20:20:24.143Z,100.00
2022-09-21T20:22:51.439Z,100.00
2022-09-21T20:25:21.812Z,100.00
2022-09-21T20:27:56.548Z,100.00
2022-09-21T20:30:31.803Z,100.00
2022-09-21T20:33:02.468Z,100.00
2022-09-21T20:35:30.939Z,100.00
2022-09-21T20:38:02.289Z,100.00
2022-09-21T20:40:30.241Z,100.00
2022-09-21T20:42:58.341Z,100.00
2022-09-21T20:45:25.372Z,100.00
2022-09-21T20:47:53.412Z,100.00
2022-09-21T20:50:20.718Z,100.00
2022-09-21T20:52:48.120Z,100.00
2022-09-21T20:55:18.509Z,100.00
2022-09-21T20:57:45.012Z,100.00
2022-09-21T21:00:16.573Z,100.00
2022-09-21T21:02:43.781Z,100.00
2022-09-21T21:05:11.540Z,100.00
2022-09-21T21:07:38.098Z,100.00
2022-09-21T21:10:05.031Z,100.00
2022-09-21T21:12:32.520Z,100.00
2022-09-21T21:14:59.293Z,100.00
2022-09-21T21:17:26.188Z,100.00
2022-09-21T21:19:52.778Z,100.00
2022-09-21T21:22:19.450Z,100.00
2022-09-21T21:24:46.134Z,100.00
2022-09-21T21:27:21.237Z,100.00
2022-09-21T21:29:50.439Z,100.00
2022-09-21T21:32:18.831Z,100.00
2022-09-21T21:34:45.812Z,100.00
2022-09-21T21:37:13.750Z,100.00
2022-09-21T21:39:40.563Z,100.00
2022-09-21T21:42:07.341Z,100.00
2022-09-21T21:44:34.024Z,100.00
2022-09-21T21:47:20.922Z,100.00
2022-09-21T21:49:47.838Z,100.00
2022-09-21T21:52:14.800Z,100.00
2022-09-21T21:54:41.836Z,100.00
2022-09-21T21:57:10.228Z,100.00
2022-09-21T21:59:36.896Z,100.00
2022-09-21T22:02:03.590Z,100.00
2022-09-21T22:04:30.344Z,100.00
2022-09-21T22:06:57.022Z,100.00
2022-09-21T22:09:23.636Z,100.00
2022-09-21T22:11:51.013Z,100.00
2022-09-21T22:14:18.529Z,100.00
2022-09-21T22:16:45.312Z,100.00
2022-09-21T22:19:12.132Z,100.00
2022-09-21T22:21:41.837Z,100.00
2022-09-21T22:24:09.937Z,100.00
2022-09-21T22:26:48.754Z,100.00
2022-09-21T22:29:16.934Z,100.00
2022-09-21T22:31:47.198Z,100.00
2022-09-21T22:34:15.008Z,100.00
2022-09-21T22:36:43.918Z,100.00
2022-09-21T22:39:11.608Z,100.00
2022-09-21T22:41:40.812Z,100.00
2022-09-21T22:44:08.132Z,100.00
2022-09-21T22:46:35.279Z,100.00
2022-09-21T22:49:02.445Z,100.00
2022-09-21T22:51:29.934Z,100.00
2022-09-21T22:53:57.829Z,100.00
2022-09-21T22:56:32.357Z,100.00
2022-09-21T22:59:01.103Z,100.00
2022-09-21T23:01:30.599Z,100.00
2022-09-21T23:03:59.938Z,100.00
2022-09-21T23:06:29.855Z,100.00
2022-09-21T23:08:57.750Z,100.00
2022-09-21T23:11:27.367Z,100.00
2022-09-21T23:13:55.442Z,100.00
2022-09-21T23:16:23.617Z,100.00
2022-09-21T23:18:50.748Z,100.00
2022-09-21T23:21:19.844Z,100.00
2022-09-21T23:23:46.740Z,100.00
2022-09-21T23:26:16.262Z,100.00
2022-09-21T23:28:45.756Z,100.00
2022-09-21T23:31:15.080Z,100.00
2022-09-21T23:33:44.523Z,100.00
2022-09-21T23:36:13.224Z,100.00
2022-09-21T23:38:41.281Z,100.00
2022-09-21T23:41:28.833Z,100.00
2022-09-21T23:43:56.154Z,100.00
2022-09-21T23:46:26.122Z,100.00
2022-09-21T23:48:52.977Z,100.00
2022-09-21T23:51:20.151Z,100.00
2022-09-21T23:53:47.637Z,100.00
2022-09-21T23:56:17.325Z,100.00
2022-09-21T23:58:44.503Z,100.00
